createdAt,value
2016-11-01T00:00:39.174Z,0
2016-11-01T00:01:20.771Z,0
2016-11-01T00:02:02.398Z,0
2016-11-01T00:02:44.104Z,0
2016-11-01T00:03:25.753Z,0
2016-11-01T00:04:07.471Z,0
2016-11-01T00:04:49.275Z,0
2016-11-01T00:05:30.888Z,0
2016-11-01T00:09:35.591Z,0
2016-11-01T00:12:11.969Z,0
2016-11-01T00:12:53.567Z,0
2016-11-01T00:15:34.953Z,0
2016-11-01T00:16:16.644Z,0
2016-11-01T00:20:52.794Z,0
2016-11-01T00:21:34.602Z,0
2016-11-01T00:22:15.897Z,0
2016-11-01T00:24:57.647Z,0
2016-11-01T00:25:39.296Z,0
2016-11-01T00:26:20.896Z,0
2016-11-01T00:28:51.862Z,0
2016-11-01T00:29:33.497Z,0
2016-11-01T00:30:15.189Z,0
2016-11-01T00:30:56.925Z,0
2016-11-01T00:33:33.262Z,0
2016-11-01T00:34:14.956Z,0
2016-11-01T00:34:56.620Z,0
2016-11-01T00:35:38.332Z,0
2016-11-01T00:38:14.612Z,0
2016-11-01T00:38:56.315Z,0
2016-11-01T00:39:37.940Z,0
2016-11-01T00:40:19.687Z,0
2016-11-01T00:41:01.309Z,0
2016-11-01T00:43:37.659Z,0
2016-11-01T00:44:19.416Z,0
2016-11-01T00:45:00.979Z,0
2016-11-01T00:47:21.647Z,0
2016-11-01T00:49:52.603Z,0
2016-11-01T00:50:34.260Z,0
2016-11-01T00:51:15.925Z,0
2016-11-01T00:53:47.073Z,0
2016-11-01T00:54:28.723Z,0
2016-11-01T00:55:10.388Z,0
2016-11-01T00:55:52.127Z,0
2016-11-01T00:56:33.848Z,0
2016-11-01T00:57:15.408Z,0
2016-11-01T01:01:51.294Z,0
2016-11-01T01:02:33.064Z,0
2016-11-01T01:03:14.788Z,0
2016-11-01T01:03:56.475Z,0
2016-11-01T01:04:38.325Z,0
2016-11-01T01:05:19.828Z,0
2016-11-01T01:09:24.510Z,0
2016-11-01T01:10:06.159Z,0
2016-11-01T01:10:47.899Z,0
2016-11-01T01:11:29.596Z,0
2016-11-01T01:12:11.365Z,0
2016-11-01T01:12:53.012Z,0
2016-11-01T01:13:34.703Z,0
2016-11-01T01:15:55.280Z,0
2016-11-01T01:16:36.822Z,0
2016-11-01T01:19:13.116Z,0
2016-11-01T01:19:54.803Z,0
2016-11-01T01:20:36.592Z,0
2016-11-01T01:21:18.341Z,0
2016-11-01T01:22:00.110Z,0
2016-11-01T01:22:41.713Z,0
2016-11-01T01:23:23.451Z,0
2016-11-01T01:24:05.235Z,0
2016-11-01T01:26:47.080Z,0
2016-11-01T01:31:12.829Z,0
2016-11-01T01:31:54.573Z,0
2016-11-01T01:32:36.234Z,0
2016-11-01T01:35:12.640Z,0
2016-11-01T01:35:54.272Z,0
2016-11-01T01:36:35.936Z,0
2016-11-01T01:41:06.701Z,0
2016-11-01T01:41:48.393Z,0
2016-11-01T01:42:30.077Z,0
2016-11-01T01:43:11.646Z,0
2016-11-01T01:43:53.376Z,0
2016-11-01T01:44:35.098Z,0
2016-11-01T01:48:45.315Z,0
2016-11-01T01:49:27.029Z,0
2016-11-01T01:50:08.701Z,0
2016-11-01T01:52:45.124Z,0
2016-11-01T01:53:26.896Z,0
2016-11-01T01:54:08.593Z,0
2016-11-01T01:54:50.277Z,0
2016-11-01T01:57:05.774Z,0
2016-11-01T01:57:47.511Z,0
2016-11-01T01:58:29.259Z,0
2016-11-01T01:59:10.943Z,0
2016-11-01T01:59:52.621Z,0
2016-11-01T02:00:34.377Z,0
2016-11-01T02:01:15.692Z,0
2016-11-01T02:01:56.223Z,0
2016-11-01T02:02:36.757Z,0
2016-11-01T02:03:17.289Z,0
2016-11-01T02:03:57.825Z,0
2016-11-01T02:04:38.369Z,0
2016-11-01T02:05:18.909Z,0
2016-11-01T02:05:59.438Z,0
2016-11-01T02:06:39.970Z,0
2016-11-01T02:07:20.504Z,0
2016-11-01T02:08:01.051Z,0
2016-11-01T02:08:41.582Z,0
2016-11-01T02:09:22.110Z,0
2016-11-01T02:10:02.650Z,0
2016-11-01T02:10:43.185Z,0
2016-11-01T02:11:23.721Z,0
2016-11-01T02:12:04.255Z,0
2016-11-01T02:12:44.789Z,0
2016-11-01T02:13:25.332Z,0
2016-11-01T02:14:05.874Z,0
2016-11-01T02:16:40.508Z,0
2016-11-01T02:17:21.051Z,0
2016-11-01T02:18:01.588Z,0
2016-11-01T02:18:42.121Z,0
2016-11-01T02:19:22.660Z,0
2016-11-01T02:20:03.188Z,0
2016-11-01T02:20:43.731Z,0
2016-11-01T02:21:24.265Z,0
2016-11-01T02:22:04.805Z,0
2016-11-01T02:22:45.340Z,0
2016-11-01T02:23:25.868Z,0
2016-11-01T02:24:06.398Z,0
2016-11-01T02:24:46.941Z,0
2016-11-01T02:25:27.473Z,0
2016-11-01T02:26:08.016Z,0
2016-11-01T02:26:48.550Z,0
2016-11-01T02:27:29.094Z,0
2016-11-01T02:28:09.624Z,0
2016-11-01T02:28:50.148Z,0
2016-11-01T02:29:30.680Z,0
2016-11-01T02:30:11.219Z,0
2016-11-01T02:30:51.752Z,0
2016-11-01T02:31:32.289Z,0
2016-11-01T02:32:12.827Z,0
2016-11-01T02:32:53.359Z,0
2016-11-01T02:33:33.894Z,0
2016-11-01T02:34:14.435Z,0
2016-11-01T02:34:54.966Z,0
2016-11-01T02:35:35.502Z,0
2016-11-01T02:36:16.023Z,0
2016-11-01T02:36:56.563Z,0
2016-11-01T02:37:37.102Z,0
2016-11-01T02:38:17.636Z,0
2016-11-01T02:38:58.168Z,0
2016-11-01T02:39:38.714Z,0
2016-11-01T02:40:19.238Z,0
2016-11-01T02:40:59.775Z,0
2016-11-01T02:41:40.304Z,0
2016-11-01T02:42:20.825Z,0
2016-11-01T02:43:01.345Z,0
2016-11-01T02:43:41.884Z,0
2016-11-01T02:44:22.402Z,0
2016-11-01T02:45:02.939Z,0
2016-11-01T02:45:43.479Z,0
2016-11-01T02:46:24.026Z,0
2016-11-01T02:47:04.563Z,0
2016-11-01T02:47:45.102Z,0
2016-11-01T02:48:25.627Z,0
2016-11-01T02:49:06.163Z,0
2016-11-01T02:49:46.698Z,0
2016-11-01T02:50:27.241Z,0
2016-11-01T02:51:07.783Z,0
2016-11-01T02:51:48.334Z,0
2016-11-01T02:52:28.882Z,0
2016-11-01T02:53:09.416Z,0
2016-11-01T02:53:49.964Z,0
2016-11-01T02:54:30.487Z,0
2016-11-01T02:55:11.013Z,0
2016-11-01T02:55:51.550Z,0
2016-11-01T02:56:32.086Z,0
2016-11-01T02:57:12.621Z,0
2016-11-01T02:57:53.170Z,0
2016-11-01T02:58:33.695Z,0
2016-11-01T02:59:14.232Z,0
2016-11-01T02:59:54.765Z,0
2016-11-01T03:00:35.312Z,0
2016-11-01T03:01:15.847Z,0
2016-11-01T03:01:56.390Z,0
2016-11-01T03:02:36.923Z,0
2016-11-01T03:03:17.458Z,0
2016-11-01T03:03:57.986Z,0
2016-11-01T03:04:38.523Z,0
2016-11-01T03:05:19.059Z,0
2016-11-01T03:05:59.604Z,0
2016-11-01T03:06:40.145Z,0
2016-11-01T03:07:20.693Z,0
2016-11-01T03:08:01.226Z,0
2016-11-01T03:08:41.774Z,0
2016-11-01T03:09:22.313Z,0
2016-11-01T03:10:02.845Z,0
2016-11-01T03:10:43.389Z,0
2016-11-01T03:11:23.925Z,0
2016-11-01T03:12:04.447Z,0
2016-11-01T03:12:44.991Z,0
2016-11-01T03:13:25.528Z,0
2016-11-01T03:14:06.059Z,0
2016-11-01T03:14:46.598Z,0
2016-11-01T03:15:27.135Z,0
2016-11-01T03:16:07.668Z,0
2016-11-01T03:16:48.204Z,0
2016-11-01T03:17:28.739Z,0
2016-11-01T03:18:09.295Z,0
2016-11-01T03:18:49.831Z,0
2016-11-01T03:19:30.370Z,0
2016-11-01T03:20:10.899Z,0
2016-11-01T03:20:51.439Z,0
2016-11-01T03:21:31.973Z,0
2016-11-01T03:22:12.500Z,0
2016-11-01T03:22:53.042Z,0
2016-11-01T03:23:33.574Z,0
2016-11-01T03:24:14.107Z,0
2016-11-01T03:24:54.645Z,0
2016-11-01T03:25:35.182Z,0
2016-11-01T03:26:15.723Z,0
2016-11-01T03:26:56.254Z,0
2016-11-01T03:27:36.790Z,0
2016-11-01T03:28:17.318Z,0
2016-11-01T03:28:57.849Z,0
2016-11-01T03:29:38.374Z,0
2016-11-01T03:30:18.913Z,0
2016-11-01T03:30:59.458Z,0
2016-11-01T03:31:39.990Z,0
2016-11-01T03:32:20.527Z,0
2016-11-01T03:33:01.063Z,0
2016-11-01T03:33:41.600Z,0
2016-11-01T03:34:22.136Z,0
2016-11-01T03:35:02.679Z,0
2016-11-01T03:35:43.217Z,0
2016-11-01T03:36:23.757Z,0
2016-11-01T03:37:04.296Z,0
2016-11-01T03:37:44.840Z,0
2016-11-01T03:38:25.384Z,0
2016-11-01T03:39:05.893Z,0
2016-11-01T03:39:46.433Z,0
2016-11-01T03:40:26.974Z,0
2016-11-01T03:41:07.521Z,0
2016-11-01T03:41:48.048Z,0
2016-11-01T03:42:28.568Z,0
2016-11-01T03:43:09.096Z,0
2016-11-01T03:43:49.627Z,0
2016-11-01T03:44:30.161Z,0
2016-11-01T03:45:10.714Z,0
2016-11-01T03:45:51.239Z,0
2016-11-01T03:46:31.762Z,0
2016-11-01T03:47:12.297Z,0
2016-11-01T03:47:52.837Z,0
2016-11-01T03:48:33.370Z,0
2016-11-01T03:49:13.911Z,0
2016-11-01T03:49:54.447Z,0
2016-11-01T03:50:34.990Z,0
2016-11-01T03:51:15.514Z,0
2016-11-01T03:51:56.029Z,0
2016-11-01T03:52:36.566Z,0
2016-11-01T03:53:17.098Z,0
2016-11-01T03:53:57.631Z,0
2016-11-01T03:54:38.175Z,0
2016-11-01T03:55:18.708Z,0
2016-11-01T03:55:59.241Z,0
2016-11-01T03:56:39.778Z,0
2016-11-01T03:57:20.309Z,0
2016-11-01T03:58:00.835Z,0
2016-11-01T03:58:41.377Z,0
2016-11-01T03:59:21.911Z,0
2016-11-01T04:00:02.447Z,0
2016-11-01T04:00:42.985Z,0
2016-11-01T04:01:23.516Z,0
2016-11-01T04:02:04.062Z,0
2016-11-01T04:02:44.593Z,0
2016-11-01T04:03:25.131Z,0
2016-11-01T04:04:05.665Z,0
2016-11-01T04:04:46.200Z,0
2016-11-01T04:05:26.740Z,0
2016-11-01T04:06:07.281Z,0
2016-11-01T04:06:47.816Z,0
2016-11-01T04:07:28.378Z,0
2016-11-01T04:08:08.910Z,0
2016-11-01T04:08:49.452Z,0
2016-11-01T04:09:29.983Z,0
2016-11-01T04:10:10.514Z,0
2016-11-01T04:10:51.058Z,0
2016-11-01T04:11:31.595Z,0
2016-11-01T04:12:12.145Z,0
2016-11-01T04:12:52.678Z,0
2016-11-01T04:13:33.222Z,0
2016-11-01T04:14:13.751Z,0
2016-11-01T04:14:54.293Z,0
2016-11-01T04:15:34.833Z,0
2016-11-01T04:16:15.373Z,0
2016-11-01T04:16:55.897Z,0
2016-11-01T04:17:36.441Z,0
2016-11-01T04:18:16.977Z,0
2016-11-01T04:18:57.517Z,0
2016-11-01T04:19:38.051Z,0
2016-11-01T04:20:18.582Z,0
2016-11-01T04:20:59.117Z,0
2016-11-01T04:21:39.651Z,0
2016-11-01T04:22:20.177Z,0
2016-11-01T04:23:00.712Z,0
2016-11-01T04:23:41.453Z,0
2016-11-01T04:24:21.999Z,0
2016-11-01T04:25:02.533Z,0
2016-11-01T04:25:43.072Z,0
2016-11-01T04:26:23.611Z,0
2016-11-01T04:27:04.159Z,0
2016-11-01T04:27:44.705Z,0
2016-11-01T04:28:25.240Z,0
2016-11-01T04:29:05.864Z,0
2016-11-01T04:29:46.468Z,0
2016-11-01T04:30:27.000Z,0
2016-11-01T04:31:07.537Z,0
2016-11-01T04:31:48.067Z,0
2016-11-01T04:32:28.591Z,0
2016-11-01T04:33:09.131Z,0
2016-11-01T04:33:49.670Z,0
2016-11-01T04:34:30.219Z,0
2016-11-01T04:35:10.898Z,0
2016-11-01T04:35:51.458Z,0
2016-11-01T04:36:31.969Z,0
2016-11-01T04:37:12.511Z,0
2016-11-01T04:37:53.129Z,0
2016-11-01T04:38:33.543Z,0
2016-11-01T04:39:14.093Z,0
2016-11-01T04:39:54.627Z,0
2016-11-01T04:40:35.170Z,0
2016-11-01T04:41:15.711Z,0
2016-11-01T04:41:56.235Z,0
2016-11-01T04:42:36.761Z,0
2016-11-01T04:43:17.298Z,0
2016-11-01T04:43:57.845Z,0
2016-11-01T04:44:38.379Z,0
2016-11-01T04:45:18.921Z,0
2016-11-01T04:45:59.460Z,0
2016-11-01T04:46:39.980Z,0
2016-11-01T04:47:20.521Z,0
2016-11-01T04:48:01.057Z,0
2016-11-01T04:48:41.595Z,0
2016-11-01T04:49:22.145Z,0
2016-11-01T04:50:02.681Z,0
2016-11-01T04:50:43.212Z,0
2016-11-01T04:51:23.725Z,0
2016-11-01T04:52:04.286Z,0
2016-11-01T04:52:44.801Z,0
2016-11-01T04:53:25.334Z,0
2016-11-01T04:54:05.866Z,0
2016-11-01T04:54:46.406Z,0
2016-11-01T04:55:26.935Z,0
2016-11-01T04:56:07.469Z,0
2016-11-01T04:56:48.005Z,0
2016-11-01T04:57:28.539Z,0
2016-11-01T04:58:09.083Z,0
2016-11-01T04:58:49.624Z,0
2016-11-01T04:59:30.137Z,0
2016-11-01T05:00:10.674Z,0
2016-11-01T05:00:51.210Z,0
2016-11-01T05:01:31.746Z,0
2016-11-01T05:02:12.280Z,0
2016-11-01T05:02:52.896Z,0
2016-11-01T05:03:33.437Z,0
2016-11-01T05:04:13.970Z,0
2016-11-01T05:04:54.510Z,0
2016-11-01T05:05:35.057Z,0
2016-11-01T05:06:15.597Z,0
2016-11-01T05:06:56.136Z,0
2016-11-01T05:07:36.676Z,0
2016-11-01T05:08:17.213Z,0
2016-11-01T05:08:57.747Z,0
2016-11-01T05:09:38.277Z,0
2016-11-01T05:10:18.918Z,0
2016-11-01T05:10:59.431Z,0
2016-11-01T05:11:39.971Z,0
2016-11-01T05:12:20.502Z,0
2016-11-01T05:13:01.338Z,0
2016-11-01T05:13:41.758Z,0
2016-11-01T05:14:22.303Z,0
2016-11-01T05:15:02.838Z,0
2016-11-01T05:15:43.370Z,0
2016-11-01T05:16:23.898Z,0
2016-11-01T05:17:04.431Z,0
2016-11-01T05:17:45.050Z,0
2016-11-01T05:18:25.565Z,0
2016-11-01T05:19:06.105Z,0
2016-11-01T05:19:46.638Z,0
2016-11-01T05:20:27.185Z,0
2016-11-01T05:21:07.735Z,0
2016-11-01T05:21:48.285Z,0
2016-11-01T05:22:28.828Z,0
2016-11-01T05:23:09.369Z,0
2016-11-01T05:23:49.916Z,0
2016-11-01T05:24:30.458Z,0
2016-11-01T05:25:10.985Z,0
2016-11-01T05:25:51.525Z,0
2016-11-01T05:26:32.059Z,0
2016-11-01T05:27:12.596Z,0
2016-11-01T05:27:53.135Z,0
2016-11-01T05:28:33.671Z,0
2016-11-01T05:29:14.180Z,0
2016-11-01T05:29:54.707Z,0
2016-11-01T05:30:35.244Z,0
2016-11-01T05:31:15.774Z,0
2016-11-01T05:31:56.303Z,0
2016-11-01T05:32:36.850Z,0
2016-11-01T05:33:17.378Z,0
2016-11-01T05:33:57.904Z,0
2016-11-01T05:34:38.438Z,0
2016-11-01T05:35:18.976Z,0
2016-11-01T05:35:59.510Z,0
2016-11-01T05:36:40.050Z,0
2016-11-01T05:37:20.589Z,0
2016-11-01T05:38:01.126Z,0
2016-11-01T05:38:41.654Z,0
2016-11-01T05:39:22.193Z,0
2016-11-01T05:40:02.732Z,0
2016-11-01T05:40:43.291Z,0
2016-11-01T05:41:23.948Z,0
2016-11-01T05:42:04.490Z,0
2016-11-01T05:42:45.030Z,0
2016-11-01T05:43:25.560Z,0
2016-11-01T05:44:06.094Z,0
2016-11-01T05:44:46.620Z,0
2016-11-01T05:45:27.148Z,0
2016-11-01T05:46:07.682Z,0
2016-11-01T05:46:48.209Z,0
2016-11-01T05:47:28.738Z,0
2016-11-01T05:48:09.275Z,0
2016-11-01T05:48:49.795Z,0
2016-11-01T05:49:30.348Z,0
2016-11-01T05:50:10.878Z,0
2016-11-01T05:50:51.424Z,0
2016-11-01T05:51:31.964Z,0
2016-11-01T05:52:12.511Z,0
2016-11-01T05:52:53.033Z,0
2016-11-01T05:53:33.567Z,0
2016-11-01T05:54:14.097Z,0
2016-11-01T05:54:54.618Z,0
2016-11-01T05:55:35.163Z,0
2016-11-01T05:56:15.697Z,0
2016-11-01T05:56:56.219Z,0
2016-11-01T05:57:36.758Z,0
2016-11-01T05:58:17.306Z,0
2016-11-01T05:58:57.844Z,0
2016-11-01T05:59:38.389Z,0
2016-11-01T06:00:18.923Z,0
2016-11-01T06:00:59.456Z,0
2016-11-01T06:01:39.970Z,0
2016-11-01T06:02:20.506Z,0
2016-11-01T06:03:01.049Z,0
2016-11-01T06:03:41.589Z,0
2016-11-01T06:04:22.124Z,0
2016-11-01T06:05:02.668Z,0
2016-11-01T06:05:43.191Z,0
2016-11-01T06:06:23.726Z,0
2016-11-01T06:07:04.260Z,0
2016-11-01T06:07:44.801Z,0
2016-11-01T06:08:25.344Z,0
2016-11-01T06:09:05.872Z,0
2016-11-01T06:09:46.406Z,0
2016-11-01T06:10:26.941Z,0
2016-11-01T06:11:07.467Z,0
2016-11-01T06:11:48.008Z,0
2016-11-01T06:12:28.548Z,0
2016-11-01T06:13:09.087Z,0
2016-11-01T06:13:49.628Z,0
2016-11-01T06:14:30.174Z,0
2016-11-01T06:15:10.708Z,0
2016-11-01T06:15:51.225Z,0
2016-11-01T06:16:31.753Z,0
2016-11-01T06:17:12.299Z,0
2016-11-01T06:17:52.825Z,0
2016-11-01T06:18:33.349Z,0
2016-11-01T06:19:13.886Z,0
2016-11-01T06:19:54.421Z,0
2016-11-01T06:20:34.982Z,0
2016-11-01T06:21:15.519Z,0
2016-11-01T06:21:56.073Z,0
2016-11-01T06:22:36.621Z,0
2016-11-01T06:23:17.158Z,0
2016-11-01T06:23:57.709Z,0
2016-11-01T06:24:38.242Z,0
2016-11-01T06:25:18.785Z,0
2016-11-01T06:25:59.305Z,0
2016-11-01T06:26:39.846Z,0
2016-11-01T06:27:20.392Z,0
2016-11-01T06:28:00.929Z,5
2016-11-01T06:28:41.472Z,5
2016-11-01T06:29:22.006Z,5
2016-11-01T06:30:02.554Z,5
2016-11-01T06:30:43.104Z,5
2016-11-01T06:31:23.641Z,5
2016-11-01T06:32:04.191Z,5
2016-11-01T06:32:44.745Z,5
2016-11-01T06:33:25.273Z,5
2016-11-01T06:34:05.893Z,5
2016-11-01T06:34:46.435Z,5
2016-11-01T06:35:26.976Z,5
2016-11-01T06:36:07.504Z,5
2016-11-01T06:36:48.054Z,5
2016-11-01T06:37:28.611Z,10
2016-11-01T06:38:09.150Z,10
2016-11-01T06:38:49.700Z,10
2016-11-01T06:39:30.211Z,10
2016-11-01T06:40:10.744Z,10
2016-11-01T06:40:51.298Z,10
2016-11-01T06:41:31.831Z,10
2016-11-01T06:42:12.377Z,10
2016-11-01T06:42:52.916Z,10
2016-11-01T06:43:33.463Z,10
2016-11-01T06:44:13.993Z,10
2016-11-01T06:44:54.524Z,15
2016-11-01T06:45:35.050Z,15
2016-11-01T06:46:15.568Z,15
2016-11-01T06:46:56.117Z,15
2016-11-01T06:47:36.652Z,15
2016-11-01T06:48:17.202Z,15
2016-11-01T06:48:57.730Z,15
2016-11-01T06:49:38.270Z,15
2016-11-01T06:50:18.797Z,15
2016-11-01T06:50:59.338Z,15
2016-11-01T06:51:39.878Z,15
2016-11-01T06:52:20.398Z,20
2016-11-01T06:53:00.928Z,20
2016-11-01T06:53:41.439Z,20
2016-11-01T06:54:21.971Z,20
2016-11-01T06:55:02.514Z,20
2016-11-01T06:55:43.063Z,25
2016-11-01T06:56:23.601Z,20
2016-11-01T06:57:04.423Z,25
2016-11-01T06:57:44.964Z,20
2016-11-01T06:58:25.493Z,20
2016-11-01T06:59:06.013Z,25
2016-11-01T06:59:46.543Z,25
2016-11-01T07:00:27.080Z,25
2016-11-01T07:01:07.597Z,25
2016-11-01T07:01:48.143Z,25
2016-11-01T07:02:28.665Z,25
2016-11-01T07:03:09.191Z,25
2016-11-01T07:03:49.735Z,25
2016-11-01T07:04:30.255Z,30
2016-11-01T07:05:10.764Z,30
2016-11-01T07:05:51.292Z,30
2016-11-01T07:06:31.845Z,30
2016-11-01T07:07:12.378Z,30
2016-11-01T07:07:52.917Z,35
2016-11-01T07:08:33.447Z,35
2016-11-01T07:09:13.995Z,40
2016-11-01T07:09:54.549Z,35
2016-11-01T07:10:35.088Z,35
2016-11-01T07:11:15.618Z,35
2016-11-01T07:11:56.148Z,35
2016-11-01T07:12:36.673Z,30
2016-11-01T07:13:17.209Z,35
2016-11-01T07:13:57.752Z,35
2016-11-01T07:14:38.293Z,35
2016-11-01T07:15:18.853Z,40
2016-11-01T07:15:59.392Z,40
2016-11-01T07:16:39.935Z,35
2016-11-01T07:17:20.473Z,40
2016-11-01T07:18:01.061Z,35
2016-11-01T07:18:41.767Z,40
2016-11-01T07:19:22.298Z,35
2016-11-01T07:20:02.830Z,40
2016-11-01T07:20:43.354Z,45
2016-11-01T07:21:23.902Z,45
2016-11-01T07:22:04.435Z,45
2016-11-01T07:22:44.976Z,35
2016-11-01T07:23:25.494Z,40
2016-11-01T07:24:06.060Z,45
2016-11-01T07:24:46.594Z,40
2016-11-01T07:25:27.128Z,40
2016-11-01T07:26:07.749Z,50
2016-11-01T07:26:48.288Z,45
2016-11-01T07:27:29.075Z,45
2016-11-01T07:28:09.662Z,50
2016-11-01T07:28:50.192Z,45
2016-11-01T07:29:30.740Z,45
2016-11-01T07:30:11.360Z,45
2016-11-01T07:30:51.920Z,45
2016-11-01T07:31:32.469Z,50
2016-11-01T07:32:12.997Z,50
2016-11-01T07:32:53.537Z,50
2016-11-01T07:33:34.123Z,50
2016-11-01T07:34:14.837Z,50
2016-11-01T07:34:55.386Z,60
2016-11-01T07:35:35.916Z,60
2016-11-01T07:36:16.443Z,70
2016-11-01T07:36:57.139Z,65
2016-11-01T07:37:37.662Z,55
2016-11-01T07:38:18.190Z,65
2016-11-01T07:38:58.783Z,60
2016-11-01T07:39:39.327Z,75
2016-11-01T07:40:19.861Z,75
2016-11-01T07:41:00.615Z,70
2016-11-01T07:41:41.158Z,65
2016-11-01T07:42:21.695Z,65
2016-11-01T07:43:02.240Z,70
2016-11-01T07:43:42.777Z,70
2016-11-01T07:44:23.316Z,80
2016-11-01T07:45:03.898Z,80
2016-11-01T07:45:44.436Z,80
2016-11-01T07:46:24.977Z,90
2016-11-01T07:47:05.508Z,90
2016-11-01T07:47:46.039Z,75
2016-11-01T07:48:26.640Z,85
2016-11-01T07:49:07.175Z,85
2016-11-01T07:49:47.692Z,90
2016-11-01T07:50:28.232Z,95
2016-11-01T07:51:08.771Z,90
2016-11-01T07:51:49.301Z,90
2016-11-01T07:52:29.845Z,90
2016-11-01T07:53:10.408Z,95
2016-11-01T07:53:50.939Z,95
2016-11-01T07:54:31.465Z,90
2016-11-01T07:55:12.169Z,85
2016-11-01T07:55:52.707Z,90
2016-11-01T07:56:33.245Z,100
2016-11-01T07:57:13.769Z,90
2016-11-01T07:57:54.308Z,95
2016-11-01T07:58:34.836Z,105
2016-11-01T07:59:15.375Z,100
2016-11-01T07:59:55.941Z,100
2016-11-01T08:00:36.493Z,90
2016-11-01T08:01:17.041Z,110
2016-11-01T08:01:57.602Z,115
2016-11-01T08:02:38.113Z,105
2016-11-01T08:03:18.660Z,120
2016-11-01T08:03:59.175Z,100
2016-11-01T08:04:40.637Z,110
2016-11-01T08:05:21.917Z,110
2016-11-01T08:06:01.979Z,105
2016-11-01T08:06:42.495Z,95
2016-11-01T08:07:23.316Z,100
2016-11-01T08:08:03.718Z,110
2016-11-01T08:08:44.245Z,100
2016-11-01T08:09:24.776Z,115
2016-11-01T08:10:05.314Z,115
2016-11-01T08:10:45.851Z,130
2016-11-01T08:11:26.365Z,135
2016-11-01T08:12:06.898Z,135
2016-11-01T08:12:47.432Z,125
2016-11-01T08:13:27.960Z,110
2016-11-01T08:14:08.506Z,105
2016-11-01T08:14:48.995Z,110
2016-11-01T08:15:29.518Z,105
2016-11-01T08:16:10.082Z,120
2016-11-01T08:16:50.629Z,145
2016-11-01T08:17:31.167Z,160
2016-11-01T08:18:11.696Z,145
2016-11-01T08:18:52.221Z,110
2016-11-01T08:19:32.750Z,120
2016-11-01T08:20:13.273Z,155
2016-11-01T08:20:53.773Z,145
2016-11-01T08:21:34.292Z,130
2016-11-01T08:22:14.816Z,125
2016-11-01T08:22:55.367Z,125
2016-11-01T08:23:35.881Z,155
2016-11-01T08:24:16.407Z,180
2016-11-01T08:24:56.924Z,180
2016-11-01T08:25:37.443Z,145
2016-11-01T08:26:17.970Z,120
2016-11-01T08:26:58.498Z,140
2016-11-01T08:27:39.032Z,180
2016-11-01T08:28:19.558Z,165
2016-11-01T08:29:00.140Z,135
2016-11-01T08:29:40.653Z,130
2016-11-01T08:30:21.184Z,140
2016-11-01T08:31:01.714Z,145
2016-11-01T08:31:42.239Z,130
2016-11-01T08:32:22.771Z,140
2016-11-01T08:33:03.308Z,150
2016-11-01T08:33:43.831Z,155
2016-11-01T08:34:24.349Z,155
2016-11-01T08:35:04.890Z,145
2016-11-01T08:35:45.408Z,150
2016-11-01T08:36:25.948Z,160
2016-11-01T08:37:06.482Z,170
2016-11-01T08:37:47.026Z,155
2016-11-01T08:38:27.564Z,170
2016-11-01T08:39:08.082Z,180
2016-11-01T08:39:48.634Z,200
2016-11-01T08:40:29.182Z,180
2016-11-01T08:41:09.728Z,170
2016-11-01T08:41:50.265Z,205
2016-11-01T08:42:30.795Z,245
2016-11-01T08:43:11.321Z,240
2016-11-01T08:43:51.831Z,205
2016-11-01T08:44:32.367Z,200
2016-11-01T08:45:12.903Z,210
2016-11-01T08:45:53.427Z,225
2016-11-01T08:46:33.964Z,250
2016-11-01T08:47:14.508Z,260
2016-11-01T08:47:55.054Z,255
2016-11-01T08:48:35.569Z,235
2016-11-01T08:49:16.092Z,235
2016-11-01T08:49:56.629Z,260
2016-11-01T08:50:37.164Z,265
2016-11-01T08:51:17.710Z,250
2016-11-01T08:51:58.261Z,285
2016-11-01T08:52:38.779Z,300
2016-11-01T08:53:19.325Z,315
2016-11-01T08:53:59.860Z,360
2016-11-01T08:54:40.410Z,555
2016-11-01T08:55:20.938Z,520
2016-11-01T08:56:01.474Z,565
2016-11-01T08:56:42.015Z,555
2016-11-01T08:57:22.550Z,395
2016-11-01T08:58:03.078Z,370
2016-11-01T08:58:43.612Z,420
2016-11-01T08:59:24.150Z,500
2016-11-01T09:00:04.689Z,520
2016-11-01T09:00:45.223Z,435
2016-11-01T09:01:25.766Z,345
2016-11-01T09:02:06.303Z,355
2016-11-01T09:02:46.834Z,460
2016-11-01T09:03:27.380Z,490
2016-11-01T09:04:07.906Z,515
2016-11-01T09:04:48.442Z,565
2016-11-01T09:05:28.981Z,635
2016-11-01T09:06:09.509Z,740
2016-11-01T09:06:50.064Z,830
2016-11-01T09:07:30.605Z,885
2016-11-01T09:08:11.190Z,830
2016-11-01T09:08:51.717Z,560
2016-11-01T09:09:32.316Z,780
2016-11-01T09:10:12.875Z,760
2016-11-01T09:10:53.413Z,785
2016-11-01T09:11:33.994Z,810
2016-11-01T09:12:14.526Z,800
2016-11-01T09:12:55.065Z,785
2016-11-01T09:13:35.606Z,770
2016-11-01T09:14:16.137Z,750
2016-11-01T09:14:56.673Z,755
2016-11-01T09:15:37.218Z,785
2016-11-01T09:16:17.758Z,810
2016-11-01T09:16:58.340Z,770
2016-11-01T09:17:38.873Z,745
2016-11-01T09:18:19.422Z,765
2016-11-01T09:18:59.950Z,815
2016-11-01T09:19:40.517Z,830
2016-11-01T09:20:21.051Z,835
2016-11-01T09:21:01.609Z,840
2016-11-01T09:21:42.121Z,800
2016-11-01T09:22:22.660Z,780
2016-11-01T09:23:03.192Z,795
2016-11-01T09:23:43.747Z,780
2016-11-01T09:24:24.291Z,800
2016-11-01T09:25:04.849Z,775
2016-11-01T09:25:45.398Z,775
2016-11-01T09:26:25.997Z,765
2016-11-01T09:27:06.567Z,710
2016-11-01T09:27:47.194Z,810
2016-11-01T09:28:27.743Z,825
2016-11-01T09:29:08.274Z,825
2016-11-01T09:29:48.807Z,790
2016-11-01T09:30:29.360Z,805
2016-11-01T09:31:09.918Z,800
2016-11-01T09:31:50.530Z,780
2016-11-01T09:32:31.072Z,775
2016-11-01T09:33:11.637Z,810
2016-11-01T09:33:52.184Z,755
2016-11-01T09:34:32.725Z,655
2016-11-01T09:35:13.292Z,745
2016-11-01T09:35:53.872Z,795
2016-11-01T09:36:34.468Z,805
2016-11-01T09:37:15.015Z,895
2016-11-01T09:37:55.555Z,840
2016-11-01T09:38:36.074Z,870
2016-11-01T09:39:18.083Z,850
2016-11-01T09:39:58.618Z,930
2016-11-01T09:40:39.161Z,890
2016-11-01T09:41:19.706Z,850
2016-11-01T09:42:00.257Z,825
2016-11-01T09:42:40.795Z,835
2016-11-01T09:43:21.359Z,840
2016-11-01T09:44:01.899Z,835
2016-11-01T09:44:42.446Z,825
2016-11-01T09:45:22.998Z,795
2016-11-01T09:46:03.565Z,850
2016-11-01T09:46:44.118Z,860
2016-11-01T09:47:24.659Z,855
2016-11-01T09:48:05.214Z,810
2016-11-01T09:48:45.771Z,720
2016-11-01T09:49:26.326Z,810
2016-11-01T09:50:06.870Z,775
2016-11-01T09:50:47.407Z,740
2016-11-01T09:51:27.970Z,760
2016-11-01T09:52:08.508Z,725
2016-11-01T09:52:49.076Z,720
2016-11-01T09:53:29.610Z,730
2016-11-01T09:54:10.163Z,705
2016-11-01T09:54:50.707Z,725
2016-11-01T09:55:31.258Z,700
2016-11-01T09:56:11.819Z,670
2016-11-01T09:56:52.398Z,645
2016-11-01T09:57:32.930Z,635
2016-11-01T09:58:13.481Z,670
2016-11-01T09:58:54.031Z,660
2016-11-01T09:59:34.587Z,645
2016-11-01T10:00:15.821Z,660
2016-11-01T10:00:56.381Z,675
2016-11-01T10:01:36.921Z,705
2016-11-01T10:02:17.479Z,685
2016-11-01T10:02:58.015Z,710
2016-11-01T10:03:38.579Z,710
2016-11-01T10:04:19.132Z,695
2016-11-01T10:04:59.679Z,730
2016-11-01T10:05:40.222Z,690
2016-11-01T10:06:20.778Z,690
2016-11-01T10:07:01.331Z,705
2016-11-01T10:07:41.877Z,710
2016-11-01T10:08:22.421Z,725
2016-11-01T10:09:02.964Z,735
2016-11-01T10:09:43.513Z,730
2016-11-01T10:10:24.064Z,640
2016-11-01T10:11:04.664Z,650
2016-11-01T10:11:45.208Z,655
2016-11-01T10:12:25.759Z,680
2016-11-01T10:13:06.318Z,645
2016-11-01T10:13:46.856Z,575
2016-11-01T10:14:27.401Z,540
2016-11-01T10:15:07.949Z,595
2016-11-01T10:15:48.512Z,630
2016-11-01T10:16:29.071Z,635
2016-11-01T10:17:09.614Z,680
2016-11-01T10:17:50.168Z,700
2016-11-01T10:18:30.714Z,690
2016-11-01T10:19:11.269Z,675
2016-11-01T10:19:51.821Z,670
2016-11-01T10:20:32.927Z,710
2016-11-01T10:21:12.939Z,720
2016-11-01T10:21:53.488Z,705
2016-11-01T10:22:34.039Z,700
2016-11-01T10:23:14.571Z,730
2016-11-01T10:23:55.122Z,795
2016-11-01T10:24:35.689Z,855
2016-11-01T10:25:16.239Z,830
2016-11-01T10:25:56.786Z,830
2016-11-01T10:26:37.333Z,825
2016-11-01T10:27:17.883Z,865
2016-11-01T10:27:58.423Z,880
2016-11-01T10:28:38.981Z,975
2016-11-01T10:29:19.525Z,955
2016-11-01T10:30:00.084Z,925
2016-11-01T10:30:40.636Z,880
2016-11-01T10:31:21.204Z,880
2016-11-01T10:32:01.741Z,880
2016-11-01T10:32:42.293Z,810
2016-11-01T10:33:24.696Z,915
2016-11-01T10:34:05.241Z,940
2016-11-01T10:34:45.786Z,870
2016-11-01T10:35:26.333Z,865
2016-11-01T10:36:06.885Z,1055
2016-11-01T10:36:47.436Z,1185
2016-11-01T10:37:27.983Z,1230
2016-11-01T10:38:08.510Z,1110
2016-11-01T10:38:49.060Z,1120
2016-11-01T10:39:29.594Z,1195
2016-11-01T10:40:10.184Z,1205
2016-11-01T10:40:50.736Z,1045
2016-11-01T10:41:31.288Z,1245
2016-11-01T10:42:11.825Z,1255
2016-11-01T10:42:52.377Z,755
2016-11-01T10:43:32.902Z,745